Manatee — D5FH9 — position and weather

sailwx.info

Track history (hours):
 
Tides and Currents Weather Stations Pressure Air Temp Water Temp Dewpoint Dewpoint Depression Visibility Wind Speed Wind Dir Waves Ship Positions

Manatee

Last reported at 2017-Nov-15 00:26 UTC. Time now 2017-Nov-22 05:37 UTC.
Position N 27°37' W 015°15'.

Length 172 m; draft 9.2 m.

Type: Ship (hazmat cat A). MMSI: 636016269.

Date/timePositionNaut miles runAvg speedWind from/ knotsBaromVisibWave heightAir tempDewpointWater temp
2017-Nov-15 00:26N 27°37' W 015°15'715.7
2017-Nov-15 00:00N 27°43' W 015°15'816.1
2017-Nov-14 23:31N 27°51' W 015°16'816.3
2017-Nov-14 23:01N 27°59' W 015°16'713.8
2017-Nov-14 22:30N 28°05' W 015°20'4 8.5
2017-Nov-14 22:00N 28°07' W 015°24'1 1.9
2017-Nov-14 21:28N 28°08' W 015°25'0 0.0
2017-Nov-14 20:58N 28°08' W 015°25'0 0.0
2017-Nov-14 20:28N 28°08' W 015°25'0 0.0
2017-Nov-14 20:00N 28°08' W 015°25'0 0.0
2017-Nov-14 19:30N 28°08' W 015°25'0 0.0
2017-Nov-14 19:00N 28°08' W 015°25'0 0.0
2017-Nov-14 18:30N 28°08' W 015°25'0 0.0
2017-Nov-14 18:00N 28°08' W 015°25'0 0.0
2017-Nov-14 17:30N 28°08' W 015°25'0 0.0
2017-Nov-14 17:00N 28°08' W 015°25'0 0.0
2017-Nov-14 16:30N 28°08' W 015°25'0 0.0
2017-Nov-14 16:00N 28°08' W 015°25'0 0.0
2017-Nov-14 15:30N 28°08' W 015°25'0 0.0
2017-Nov-14 15:00N 28°08' W 015°25'0 0.0
2017-Nov-14 14:30N 28°08' W 015°25'0 0.0
2017-Nov-14 14:00N 28°08' W 015°25'0 0.0
2017-Nov-14 13:30N 28°08' W 015°25'0 0.0
2017-Nov-14 13:00N 28°08' W 015°25'0 0.0
2017-Nov-14 12:30N 28°08' W 015°25'0 0.0
2017-Nov-14 12:00N 28°08' W 015°25'0 0.0
2017-Nov-14 11:30N 28°08' W 015°25'0 0.0
2017-Nov-14 11:00N 28°08' W 015°25'0 0.0
2017-Nov-14 10:30N 28°08' W 015°25'0 0.0
2017-Nov-14 10:00N 28°08' W 015°25'0 0.0
2017-Nov-14 09:30N 28°08' W 015°25'0 0.0
2017-Nov-14 09:00N 28°08' W 015°25'0 0.0
2017-Nov-14 08:30N 28°08' W 015°25'0 0.0
2017-Nov-14 08:00N 28°08' W 015°25'0 0.0
2017-Nov-14 07:30N 28°08' W 015°25'0 0.0
2017-Nov-14 07:00N 28°08' W 015°25'0 0.0
2017-Nov-14 06:30N 28°08' W 015°25'0 0.0
2017-Nov-14 06:00N 28°08' W 015°25'0 0.0
2017-Nov-14 05:30N 28°08' W 015°25'0 0.0
2017-Nov-14 05:00N 28°08' W 015°25'0 0.4
2017-Nov-14 04:30N 28°08' W 015°25'2 3.6
2017-Nov-14 04:00N 28°07' W 015°23'3 5.8
2017-Nov-14 03:30N 28°10' W 015°22'510.3
2017-Nov-14 03:00N 28°15' W 015°20'612.8
2017-Nov-14 02:31N 28°21' W 015°18'816.0
2017-Nov-14 02:01N 28°29' W 015°16'816.3
2017-Nov-14 01:30N 28°36' W 015°12'816.8
2017-Nov-14 01:00N 28°44' W 015°09'816.9
2017-Nov-14 00:30N 28°52' W 015°06'2516.6
2017-Nov-13 22:59N 29°16' W 014°57'183 8.5
2017-Nov-13 01:29N 32°10' W 013°50'33116.2
2017-Nov-12 05:03N 37°21' W 011°32'116.2
2017-Nov-12 05:00N 37°22' W 011°31'7916.2
2017-Nov-12 00:07N 38°34' W 010°49'316.8
2017-Nov-11 23:56N 38°37' W 010°48'916.5
2017-Nov-11 23:22N 38°45' W 010°43'916.5
2017-Nov-11 22:51N 38°53' W 010°39'616.4
2017-Nov-11 22:30N 38°58' W 010°36'3616.0
2017-Nov-11 20:15N 39°31' W 010°17'615.6
2017-Nov-11 19:54N 39°36' W 010°14'1616.0
2017-Nov-11 18:53N 39°50' W 010°04'1016.0
2017-Nov-11 18:16N 39°59' W 009°59'7416.0
2017-Nov-11 13:39N 40°57' W 008°59'216.2
2017-Nov-11 13:30N 40°59' W 008°57'816.0
2017-Nov-11 13:00N 41°04' W 008°49'713.4
2017-Nov-11 12:30N 41°09' W 008°43'3 5.2
2017-Nov-11 12:00N 41°12' W 008°41'0 0.0
2017-Nov-11 11:30N 41°12' W 008°41'0 0.0
2017-Nov-11 11:00N 41°12' W 008°41'0 0.0
2017-Nov-11 10:31N 41°12' W 008°41'0 0.0
2017-Nov-11 10:00N 41°12' W 008°41'0 0.0
2017-Nov-11 09:30N 41°12' W 008°41'0 0.0
2017-Nov-11 09:00N 41°12' W 008°41'0 0.0
2017-Nov-11 08:30N 41°12' W 008°41'0 0.0
2017-Nov-11 08:00N 41°12' W 008°41'0 0.0
2017-Nov-11 07:30N 41°12' W 008°41'0 0.0
2017-Nov-11 07:00N 41°12' W 008°41'0 0.0
2017-Nov-11 06:30N 41°12' W 008°41'0 0.0
2017-Nov-11 06:00N 41°12' W 008°41'0 0.0
2017-Nov-11 05:30N 41°12' W 008°41'0 0.0
2017-Nov-11 05:00N 41°12' W 008°41'0 0.0
2017-Nov-11 04:30N 41°12' W 008°41'0 0.0
2017-Nov-11 04:00N 41°12' W 008°41'0 0.0
2017-Nov-11 03:30N 41°12' W 008°41'0 0.0
2017-Nov-11 03:00N 41°12' W 008°41'0 0.0
2017-Nov-11 02:30N 41°12' W 008°41'0 0.0
2017-Nov-11 02:00N 41°12' W 008°41'0 0.0
2017-Nov-11 01:30N 41°12' W 008°41'0 0.0
2017-Nov-11 01:00N 41°12' W 008°41'0 0.0
2017-Nov-11 00:30N 41°12' W 008°41'0 0.0
2017-Nov-11 00:00N 41°12' W 008°41'0 0.0
2017-Nov-10 23:30N 41°12' W 008°41'0 0.0
2017-Nov-10 23:00N 41°12' W 008°41'0 0.0
2017-Nov-10 22:30N 41°12' W 008°41'0 0.0
2017-Nov-10 22:00N 41°12' W 008°41'0 0.0
2017-Nov-10 21:30N 41°12' W 008°41'0 0.0
2017-Nov-10 21:00N 41°12' W 008°41'0 0.0
2017-Nov-10 20:30N 41°12' W 008°41'0 0.0
2017-Nov-10 20:00N 41°12' W 008°41'0 0.0
2017-Nov-10 19:30N 41°12' W 008°41'0 0.0
2017-Nov-10 19:00N 41°12' W 008°41'0 0.0
2017-Nov-10 18:30N 41°12' W 008°41'0 0.0
2017-Nov-10 18:00N 41°12' W 008°41'0 0.0
2017-Nov-10 17:30N 41°12' W 008°41'0 0.0
2017-Nov-10 17:00N 41°12' W 008°41'0 0.0
2017-Nov-10 16:30N 41°12' W 008°41'0 0.0
2017-Nov-10 16:00N 41°12' W 008°41'0 0.0
2017-Nov-10 15:30N 41°12' W 008°41'0 0.0
2017-Nov-10 15:00N 41°12' W 008°41'0 0.0
2017-Nov-10 14:30N 41°12' W 008°41'0 0.0
2017-Nov-10 14:00N 41°12' W 008°41'0 0.0
2017-Nov-10 13:30N 41°12' W 008°41'0 0.0
2017-Nov-10 13:00N 41°12' W 008°41'0 0.0
2017-Nov-10 12:30N 41°12' W 008°41'0 0.0
2017-Nov-10 12:00N 41°12' W 008°41'0 0.0
2017-Nov-10 11:30N 41°12' W 008°41'0 0.0
2017-Nov-10 11:00N 41°12' W 008°41'0 0.0
2017-Nov-10 10:30N 41°12' W 008°41'0 0.0
2017-Nov-10 10:00N 41°12' W 008°41'0 0.0
2017-Nov-10 09:30N 41°12' W 008°41'0 0.0
2017-Nov-10 09:00N 41°12' W 008°41'0 0.0
2017-Nov-10 08:30N 41°12' W 008°41'0 0.0
2017-Nov-10 08:00N 41°12' W 008°41'0 0.0
2017-Nov-10 07:30N 41°12' W 008°41'0 0.0
2017-Nov-10 07:00N 41°12' W 008°41'0 0.0
2017-Nov-10 06:30N 41°12' W 008°41'0 0.0
2017-Nov-10 06:00N 41°12' W 008°41'0 0.0
2017-Nov-10 05:30N 41°12' W 008°41'0 0.0
2017-Nov-10 05:00N 41°12' W 008°41'0 0.0
2017-Nov-10 04:30N 41°12' W 008°41'0 0.0
2017-Nov-10 04:00N 41°12' W 008°41'0 0.0
2017-Nov-10 03:30N 41°12' W 008°41'0 0.0
2017-Nov-10 03:00N 41°12' W 008°41'0 0.0
2017-Nov-10 02:30N 41°12' W 008°41'0 0.0
2017-Nov-10 02:00N 41°12' W 008°41'0 0.0
2017-Nov-10 01:30N 41°12' W 008°41'0 0.0
2017-Nov-10 01:00N 41°12' W 008°41'0 0.0
2017-Nov-10 00:30N 41°12' W 008°41'0 0.0
2017-Nov-10 00:00N 41°12' W 008°41'0 0.0
2017-Nov-09 23:30N 41°12' W 008°41'0 0.0
2017-Nov-09 23:00N 41°12' W 008°41'0 0.0
2017-Nov-09 22:30N 41°12' W 008°41'0 0.0
2017-Nov-09 22:00N 41°12' W 008°41'1 1.0
2017-Nov-09 21:30N 41°11' W 008°42'3 6.3
2017-Nov-09 21:00N 41°09' W 008°44'1 2.7
2017-Nov-09 20:30N 41°08' W 008°46'1 1.3
2017-Nov-09 19:58N 41°08' W 008°47'0 0.1
2017-Nov-09 19:28N 41°08' W 008°46'0 0.0
2017-Nov-09 18:58N 41°08' W 008°46'0 0.1
2017-Nov-09 18:25N 41°08' W 008°46'0 0.0
2017-Nov-09 17:58N 41°08' W 008°46'0 0.0
2017-Nov-09 17:28N 41°08' W 008°46'0 0.0
2017-Nov-09 16:55N 41°08' W 008°46'0 0.0
2017-Nov-09 16:28N 41°08' W 008°46'0 0.0
2017-Nov-09 15:58N 41°08' W 008°46'0 0.1
2017-Nov-09 15:29N 41°08' W 008°47'3 5.2
2017-Nov-09 15:00N 41°05' W 008°47'611.5
2017-Nov-09 14:30N 40°60' W 008°50'9614.2
2017-Nov-09 07:47N 39°33' W 009°43'413.7
2017-Nov-09 07:30N 39°30' W 009°45'713.6
2017-Nov-09 07:00N 39°23' W 009°46'713.6
2017-Nov-09 06:30N 39°16' W 009°48'713.7
2017-Nov-09 06:00N 39°10' W 009°49'713.6
2017-Nov-09 05:30N 39°03' W 009°51'713.9
2017-Nov-09 05:00N 38°56' W 009°52'713.6
2017-Nov-09 04:30N 38°49' W 009°53'713.9
2017-Nov-09 04:00N 38°42' W 009°52'713.2
2017-Nov-09 03:31N 38°36' W 009°51'612.3
2017-Nov-09 03:01N 38°31' W 009°46'714.6
2017-Nov-09 02:31N 38°33' W 009°37'815.4
2017-Nov-09 02:00N 38°36' W 009°28'714.4
2017-Nov-09 01:30N 38°39' W 009°20'510.4
2017-Nov-09 01:00N 38°41' W 009°14'510.6
2017-Nov-09 00:30N 38°42' W 009°07'1 1.3
2017-Nov-09 00:00N 38°43' W 009°07'0 0.0
2017-Nov-08 23:27N 38°43' W 009°07'0 0.0
2017-Nov-08 23:00N 38°43' W 009°07'0 0.0
2017-Nov-08 22:30N 38°43' W 009°07'0 0.0
2017-Nov-08 21:57N 38°43' W 009°07'0 0.0
2017-Nov-08 21:30N 38°43' W 009°07'0 0.0
2017-Nov-08 21:00N 38°43' W 009°07'0 0.0
2017-Nov-08 20:30N 38°43' W 009°07'0 0.0
2017-Nov-08 20:00N 38°43' W 009°07'0 0.0
2017-Nov-08 19:30N 38°43' W 009°07'0 0.0
2017-Nov-08 19:00N 38°43' W 009°07'0 0.0
2017-Nov-08 18:30N 38°43' W 009°07'0 0.0
2017-Nov-08 18:00N 38°43' W 009°07'0 0.0
2017-Nov-08 17:30N 38°43' W 009°07'0 0.0
2017-Nov-08 16:54N 38°43' W 009°07'0 0.0
2017-Nov-08 16:30N 38°43' W 009°07'0 0.0
2017-Nov-08 15:54N 38°43' W 009°07'0 0.0
2017-Nov-08 15:27N 38°43' W 009°07'0 0.0
2017-Nov-08 15:00N 38°43' W 009°07'0 0.0
2017-Nov-08 14:27N 38°43' W 009°07'0 0.0
2017-Nov-08 14:00N 38°43' W 009°07'0 0.0
2017-Nov-08 13:30N 38°43' W 009°07'0 0.0
2017-Nov-08 13:00N 38°43' W 009°07'0 0.0
2017-Nov-08 12:30N 38°43' W 009°07'0 0.0
2017-Nov-08 12:00N 38°43' W 009°07'0 0.0
2017-Nov-08 11:21N 38°43' W 009°07'0 0.0
2017-Nov-08 11:00N 38°43' W 009°07'0 0.0
2017-Nov-08 10:27N 38°43' W 009°07'0 0.0
2017-Nov-08 10:00N 38°43' W 009°07'0 0.0
2017-Nov-08 09:24N 38°43' W 009°07'0 0.0
2017-Nov-08 08:57N 38°43' W 009°07'0 0.0
2017-Nov-08 08:30N 38°43' W 009°07'0 0.0
2017-Nov-08 08:00N 38°43' W 009°07'0 0.0
2017-Nov-08 07:30N 38°43' W 009°07'0 0.0
2017-Nov-08 07:00N 38°43' W 009°07'0 0.0
2017-Nov-08 06:27N 38°43' W 009°07'0 0.0
2017-Nov-08 06:00N 38°43' W 009°07'0 0.0
2017-Nov-08 05:30N 38°43' W 009°07'0 0.0
2017-Nov-08 05:00N 38°43' W 009°07'0 0.0
2017-Nov-08 04:30N 38°43' W 009°07'0 0.0
2017-Nov-08 04:00N 38°43' W 009°07'0 0.0
2017-Nov-08 03:30N 38°43' W 009°07'0 0.0
2017-Nov-08 03:00N 38°43' W 009°07'0 0.0
2017-Nov-08 02:27N 38°43' W 009°07'0 0.0
2017-Nov-08 02:00N 38°43' W 009°07'0 0.0
2017-Nov-08 01:30N 38°43' W 009°07'0 0.0
2017-Nov-08 00:54N 38°43' W 009°07'0 0.0
2017-Nov-08 00:27N 38°43' W 009°07'0 0.0
2017-Nov-08 00:00N 38°43' W 009°07'0 0.0
2017-Nov-07 23:30N 38°43' W 009°07'0 0.0
2017-Nov-07 23:00N 38°43' W 009°07'0 0.0
2017-Nov-07 22:30N 38°43' W 009°07'0 0.0
2017-Nov-07 22:00N 38°43' W 009°07'0 0.0
2017-Nov-07 21:30N 38°43' W 009°07'0 0.0
2017-Nov-07 20:57N 38°43' W 009°07'0 0.0
2017-Nov-07 20:30N 38°43' W 009°07'0 0.0
2017-Nov-07 20:00N 38°43' W 009°07'0 0.0
2017-Nov-07 19:30N 38°43' W 009°07'0 0.0
2017-Nov-07 19:00N 38°43' W 009°07'0 0.0
2017-Nov-07 18:30N 38°43' W 009°07'0 0.0
2017-Nov-07 18:00N 38°43' W 009°07'0 0.0
2017-Nov-07 17:27N 38°43' W 009°07'0 0.0
2017-Nov-07 17:00N 38°43' W 009°07'0 0.0
2017-Nov-07 16:30N 38°43' W 009°07'0 0.0
2017-Nov-07 16:00N 38°43' W 009°07'0 0.0
2017-Nov-07 15:30N 38°43' W 009°07'0 0.0
2017-Nov-07 15:00N 38°43' W 009°07'0 0.0
2017-Nov-07 14:30N 38°43' W 009°07'0 0.0
2017-Nov-07 14:00N 38°43' W 009°07'0 0.0
2017-Nov-07 13:30N 38°43' W 009°07'0 0.0
2017-Nov-07 13:00N 38°43' W 009°07'0 0.0
2017-Nov-07 12:30N 38°43' W 009°07'0 0.0
2017-Nov-07 12:00N 38°43' W 009°07'0 0.0
2017-Nov-07 11:24N 38°43' W 009°07'0 0.0
2017-Nov-07 11:00N 38°43' W 009°07'0 0.0
2017-Nov-07 10:30N 38°43' W 009°07'0 0.0
2017-Nov-07 10:00N 38°43' W 009°07'0 0.0
2017-Nov-07 09:30N 38°43' W 009°07'0 0.0
2017-Nov-07 09:00N 38°43' W 009°07'0 0.0
2017-Nov-07 08:30N 38°43' W 009°07'0 0.0
2017-Nov-07 08:00N 38°43' W 009°07'0 0.0
2017-Nov-07 07:30N 38°43' W 009°07'0 0.0
2017-Nov-07 07:00N 38°43' W 009°07'0 0.0
2017-Nov-07 06:30N 38°43' W 009°07'0 0.0
2017-Nov-07 06:00N 38°43' W 009°07'0 0.0
2017-Nov-07 05:30N 38°43' W 009°07'0 0.0
2017-Nov-07 05:00N 38°43' W 009°07'0 0.0
2017-Nov-07 04:30N 38°43' W 009°07'0 0.0
2017-Nov-07 04:00N 38°43' W 009°07'0 0.0
2017-Nov-07 03:30N 38°43' W 009°07'0 0.0
2017-Nov-07 03:00N 38°43' W 009°07'0 0.0
2017-Nov-07 02:30N 38°43' W 009°07'0 0.0
2017-Nov-07 02:00N 38°43' W 009°07'0 0.0
2017-Nov-07 01:30N 38°43' W 009°07'0 0.0
2017-Nov-07 01:00N 38°43' W 009°07'0 0.0
2017-Nov-07 00:30N 38°43' W 009°07'0 0.0
2017-Nov-07 00:00N 38°43' W 009°07'0 0.0
2017-Nov-06 23:30N 38°43' W 009°07'0 0.0
2017-Nov-06 23:00N 38°43' W 009°07'0 0.0
2017-Nov-06 22:30N 38°43' W 009°07'0 0.0
2017-Nov-06 22:00N 38°43' W 009°07'0 0.0
2017-Nov-06 21:27N 38°43' W 009°07'0 0.0
2017-Nov-06 21:00N 38°43' W 009°07'0 0.0
2017-Nov-06 20:30N 38°43' W 009°07'33 1.8
2017-Nov-06 02:31N 38°11' W 009°17'714.9
2017-Nov-06 02:01N 38°04' W 009°15'611.3
2017-Nov-06 01:30N 37°59' W 009°13'1 1.4
2017-Nov-06 01:00N 37°59' W 009°13'1 2.0
2017-Nov-06 00:30N 37°60' W 009°12'1 2.0
2017-Nov-06 00:00N 38°01' W 009°12'1 2.0
2017-Nov-05 23:30N 38°02' W 009°12'1 2.1
2017-Nov-05 23:00N 38°03' W 009°12'1 2.0
2017-Nov-05 22:30N 38°04' W 009°12'1 2.0
2017-Nov-05 21:57N 38°05' W 009°13'1 1.9
2017-Nov-05 21:30N 38°06' W 009°13'1 1.8
2017-Nov-05 21:00N 38°07' W 009°13'1 1.4
2017-Nov-05 20:30N 38°07' W 009°13'4 8.1
2017-Nov-05 20:00N 38°04' W 009°15'714.0
2017-Nov-05 19:31N 37°57' W 009°17'713.7
2017-Nov-05 19:00N 37°51' W 009°20'713.8
2017-Nov-05 18:30N 37°44' W 009°23'713.6
2017-Nov-05 18:00N 37°37' W 009°23'713.6
2017-Nov-05 17:30N 37°30' W 009°23'  
Track history (hours):
 
Tides and Currents Weather Stations Pressure Air Temp Water Temp Dewpoint Dewpoint Depression Visibility Wind Speed Wind Dir Waves Ship Positions

Manatee

Last reported at 2017-Nov-15 00:26 UTC. Time now 2017-Nov-22 05:37 UTC.
Position N 27°37' W 015°15'.

Length 172 m; draft 9.2 m.

Type: Ship (hazmat cat A). MMSI: 636016269.

Date/timePositionNaut miles runAvg speedWind from/ knotsBaromVisibWave heightAir tempDewpointWater temp
2017-Nov-15 00:26N 27°37' W 015°15'715.7
2017-Nov-15 00:00N 27°43' W 015°15'816.1
2017-Nov-14 23:31N 27°51' W 015°16'816.3
2017-Nov-14 23:01N 27°59' W 015°16'713.8
2017-Nov-14 22:30N 28°05' W 015°20'4 8.5
2017-Nov-14 22:00N 28°07' W 015°24'1 1.9
2017-Nov-14 21:28N 28°08' W 015°25'0 0.0
2017-Nov-14 20:58N 28°08' W 015°25'0 0.0
2017-Nov-14 20:28N 28°08' W 015°25'0 0.0
2017-Nov-14 20:00N 28°08' W 015°25'0 0.0
2017-Nov-14 19:30N 28°08' W 015°25'0 0.0
2017-Nov-14 19:00N 28°08' W 015°25'0 0.0
2017-Nov-14 18:30N 28°08' W 015°25'0 0.0
2017-Nov-14 18:00N 28°08' W 015°25'0 0.0
2017-Nov-14 17:30N 28°08' W 015°25'0 0.0
2017-Nov-14 17:00N 28°08' W 015°25'0 0.0
2017-Nov-14 16:30N 28°08' W 015°25'0 0.0
2017-Nov-14 16:00N 28°08' W 015°25'0 0.0
2017-Nov-14 15:30N 28°08' W 015°25'0 0.0
2017-Nov-14 15:00N 28°08' W 015°25'0 0.0
2017-Nov-14 14:30N 28°08' W 015°25'0 0.0
2017-Nov-14 14:00N 28°08' W 015°25'0 0.0
2017-Nov-14 13:30N 28°08' W 015°25'0 0.0
2017-Nov-14 13:00N 28°08' W 015°25'0 0.0
2017-Nov-14 12:30N 28°08' W 015°25'0 0.0
2017-Nov-14 12:00N 28°08' W 015°25'0 0.0
2017-Nov-14 11:30N 28°08' W 015°25'0 0.0
2017-Nov-14 11:00N 28°08' W 015°25'0 0.0
2017-Nov-14 10:30N 28°08' W 015°25'0 0.0
2017-Nov-14 10:00N 28°08' W 015°25'0 0.0
2017-Nov-14 09:30N 28°08' W 015°25'0 0.0
2017-Nov-14 09:00N 28°08' W 015°25'0 0.0
2017-Nov-14 08:30N 28°08' W 015°25'0 0.0
2017-Nov-14 08:00N 28°08' W 015°25'0 0.0
2017-Nov-14 07:30N 28°08' W 015°25'0 0.0
2017-Nov-14 07:00N 28°08' W 015°25'0 0.0
2017-Nov-14 06:30N 28°08' W 015°25'0 0.0
2017-Nov-14 06:00N 28°08' W 015°25'0 0.0
2017-Nov-14 05:30N 28°08' W 015°25'0 0.0
2017-Nov-14 05:00N 28°08' W 015°25'0 0.4
2017-Nov-14 04:30N 28°08' W 015°25'2 3.6
2017-Nov-14 04:00N 28°07' W 015°23'3 5.8
2017-Nov-14 03:30N 28°10' W 015°22'510.3
2017-Nov-14 03:00N 28°15' W 015°20'612.8
2017-Nov-14 02:31N 28°21' W 015°18'816.0
2017-Nov-14 02:01N 28°29' W 015°16'816.3
2017-Nov-14 01:30N 28°36' W 015°12'816.8
2017-Nov-14 01:00N 28°44' W 015°09'816.9
2017-Nov-14 00:30N 28°52' W 015°06'2516.6
2017-Nov-13 22:59N 29°16' W 014°57'183 8.5
2017-Nov-13 01:29N 32°10' W 013°50'33116.2
2017-Nov-12 05:03N 37°21' W 011°32'116.2
2017-Nov-12 05:00N 37°22' W 011°31'7916.2
2017-Nov-12 00:07N 38°34' W 010°49'316.8
2017-Nov-11 23:56N 38°37' W 010°48'916.5
2017-Nov-11 23:22N 38°45' W 010°43'916.5
2017-Nov-11 22:51N 38°53' W 010°39'616.4
2017-Nov-11 22:30N 38°58' W 010°36'3616.0
2017-Nov-11 20:15N 39°31' W 010°17'615.6
2017-Nov-11 19:54N 39°36' W 010°14'1616.0
2017-Nov-11 18:53N 39°50' W 010°04'1016.0
2017-Nov-11 18:16N 39°59' W 009°59'7416.0
2017-Nov-11 13:39N 40°57' W 008°59'216.2
2017-Nov-11 13:30N 40°59' W 008°57'816.0
2017-Nov-11 13:00N 41°04' W 008°49'713.4
2017-Nov-11 12:30N 41°09' W 008°43'3 5.2
2017-Nov-11 12:00N 41°12' W 008°41'0 0.0
2017-Nov-11 11:30N 41°12' W 008°41'0 0.0
2017-Nov-11 11:00N 41°12' W 008°41'0 0.0
2017-Nov-11 10:31N 41°12' W 008°41'0 0.0
2017-Nov-11 10:00N 41°12' W 008°41'0 0.0
2017-Nov-11 09:30N 41°12' W 008°41'0 0.0
2017-Nov-11 09:00N 41°12' W 008°41'0 0.0
2017-Nov-11 08:30N 41°12' W 008°41'0 0.0
2017-Nov-11 08:00N 41°12' W 008°41'0 0.0
2017-Nov-11 07:30N 41°12' W 008°41'0 0.0
2017-Nov-11 07:00N 41°12' W 008°41'0 0.0
2017-Nov-11 06:30N 41°12' W 008°41'0 0.0
2017-Nov-11 06:00N 41°12' W 008°41'0 0.0
2017-Nov-11 05:30N 41°12' W 008°41'0 0.0
2017-Nov-11 05:00N 41°12' W 008°41'0 0.0
2017-Nov-11 04:30N 41°12' W 008°41'0 0.0
2017-Nov-11 04:00N 41°12' W 008°41'0 0.0
2017-Nov-11 03:30N 41°12' W 008°41'0 0.0
2017-Nov-11 03:00N 41°12' W 008°41'0 0.0
2017-Nov-11 02:30N 41°12' W 008°41'0 0.0
2017-Nov-11 02:00N 41°12' W 008°41'0 0.0
2017-Nov-11 01:30N 41°12' W 008°41'0 0.0
2017-Nov-11 01:00N 41°12' W 008°41'0 0.0
2017-Nov-11 00:30N 41°12' W 008°41'0 0.0
2017-Nov-11 00:00N 41°12' W 008°41'0 0.0
2017-Nov-10 23:30N 41°12' W 008°41'0 0.0
2017-Nov-10 23:00N 41°12' W 008°41'0 0.0
2017-Nov-10 22:30N 41°12' W 008°41'0 0.0
2017-Nov-10 22:00N 41°12' W 008°41'0 0.0
2017-Nov-10 21:30N 41°12' W 008°41'0 0.0
2017-Nov-10 21:00N 41°12' W 008°41'0 0.0
2017-Nov-10 20:30N 41°12' W 008°41'0 0.0
2017-Nov-10 20:00N 41°12' W 008°41'0 0.0
2017-Nov-10 19:30N 41°12' W 008°41'0 0.0
2017-Nov-10 19:00N 41°12' W 008°41'0 0.0
2017-Nov-10 18:30N 41°12' W 008°41'0 0.0
2017-Nov-10 18:00N 41°12' W 008°41'0 0.0
2017-Nov-10 17:30N 41°12' W 008°41'0 0.0
2017-Nov-10 17:00N 41°12' W 008°41'0 0.0
2017-Nov-10 16:30N 41°12' W 008°41'0 0.0
2017-Nov-10 16:00N 41°12' W 008°41'0 0.0
2017-Nov-10 15:30N 41°12' W 008°41'0 0.0
2017-Nov-10 15:00N 41°12' W 008°41'0 0.0
2017-Nov-10 14:30N 41°12' W 008°41'0 0.0
2017-Nov-10 14:00N 41°12' W 008°41'0 0.0
2017-Nov-10 13:30N 41°12' W 008°41'0 0.0
2017-Nov-10 13:00N 41°12' W 008°41'0 0.0
2017-Nov-10 12:30N 41°12' W 008°41'0 0.0
2017-Nov-10 12:00N 41°12' W 008°41'0 0.0
2017-Nov-10 11:30N 41°12' W 008°41'0 0.0
2017-Nov-10 11:00N 41°12' W 008°41'0 0.0
2017-Nov-10 10:30N 41°12' W 008°41'0 0.0
2017-Nov-10 10:00N 41°12' W 008°41'0 0.0
2017-Nov-10 09:30N 41°12' W 008°41'0 0.0
2017-Nov-10 09:00N 41°12' W 008°41'0 0.0
2017-Nov-10 08:30N 41°12' W 008°41'0 0.0
2017-Nov-10 08:00N 41°12' W 008°41'0 0.0
2017-Nov-10 07:30N 41°12' W 008°41'0 0.0
2017-Nov-10 07:00N 41°12' W 008°41'0 0.0
2017-Nov-10 06:30N 41°12' W 008°41'0 0.0
2017-Nov-10 06:00N 41°12' W 008°41'0 0.0
2017-Nov-10 05:30N 41°12' W 008°41'0 0.0
2017-Nov-10 05:00N 41°12' W 008°41'0 0.0
2017-Nov-10 04:30N 41°12' W 008°41'0 0.0
2017-Nov-10 04:00N 41°12' W 008°41'0 0.0
2017-Nov-10 03:30N 41°12' W 008°41'0 0.0
2017-Nov-10 03:00N 41°12' W 008°41'0 0.0
2017-Nov-10 02:30N 41°12' W 008°41'0 0.0
2017-Nov-10 02:00N 41°12' W 008°41'0 0.0
2017-Nov-10 01:30N 41°12' W 008°41'0 0.0
2017-Nov-10 01:00N 41°12' W 008°41'0 0.0
2017-Nov-10 00:30N 41°12' W 008°41'0 0.0
2017-Nov-10 00:00N 41°12' W 008°41'0 0.0
2017-Nov-09 23:30N 41°12' W 008°41'0 0.0
2017-Nov-09 23:00N 41°12' W 008°41'0 0.0
2017-Nov-09 22:30N 41°12' W 008°41'0 0.0
2017-Nov-09 22:00N 41°12' W 008°41'1 1.0
2017-Nov-09 21:30N 41°11' W 008°42'3 6.3
2017-Nov-09 21:00N 41°09' W 008°44'1 2.7
2017-Nov-09 20:30N 41°08' W 008°46'1 1.3
2017-Nov-09 19:58N 41°08' W 008°47'0 0.1
2017-Nov-09 19:28N 41°08' W 008°46'0 0.0
2017-Nov-09 18:58N 41°08' W 008°46'0 0.1
2017-Nov-09 18:25N 41°08' W 008°46'0 0.0
2017-Nov-09 17:58N 41°08' W 008°46'0 0.0
2017-Nov-09 17:28N 41°08' W 008°46'0 0.0
2017-Nov-09 16:55N 41°08' W 008°46'0 0.0
2017-Nov-09 16:28N 41°08' W 008°46'0 0.0
2017-Nov-09 15:58N 41°08' W 008°46'0 0.1
2017-Nov-09 15:29N 41°08' W 008°47'3 5.2
2017-Nov-09 15:00N 41°05' W 008°47'611.5
2017-Nov-09 14:30N 40°60' W 008°50'9614.2
2017-Nov-09 07:47N 39°33' W 009°43'413.7
2017-Nov-09 07:30N 39°30' W 009°45'713.6
2017-Nov-09 07:00N 39°23' W 009°46'713.6
2017-Nov-09 06:30N 39°16' W 009°48'713.7
2017-Nov-09 06:00N 39°10' W 009°49'713.6
2017-Nov-09 05:30N 39°03' W 009°51'713.9
2017-Nov-09 05:00N 38°56' W 009°52'713.6
2017-Nov-09 04:30N 38°49' W 009°53'713.9
2017-Nov-09 04:00N 38°42' W 009°52'713.2
2017-Nov-09 03:31N 38°36' W 009°51'612.3
2017-Nov-09 03:01N 38°31' W 009°46'714.6
2017-Nov-09 02:31N 38°33' W 009°37'815.4
2017-Nov-09 02:00N 38°36' W 009°28'714.4
2017-Nov-09 01:30N 38°39' W 009°20'510.4
2017-Nov-09 01:00N 38°41' W 009°14'510.6
2017-Nov-09 00:30N 38°42' W 009°07'1 1.3
2017-Nov-09 00:00N 38°43' W 009°07'0 0.0
2017-Nov-08 23:27N 38°43' W 009°07'0 0.0
2017-Nov-08 23:00N 38°43' W 009°07'0 0.0
2017-Nov-08 22:30N 38°43' W 009°07'0 0.0
2017-Nov-08 21:57N 38°43' W 009°07'0 0.0
2017-Nov-08 21:30N 38°43' W 009°07'0 0.0
2017-Nov-08 21:00N 38°43' W 009°07'0 0.0
2017-Nov-08 20:30N 38°43' W 009°07'0 0.0
2017-Nov-08 20:00N 38°43' W 009°07'0 0.0
2017-Nov-08 19:30N 38°43' W 009°07'0 0.0
2017-Nov-08 19:00N 38°43' W 009°07'0 0.0
2017-Nov-08 18:30N 38°43' W 009°07'0 0.0
2017-Nov-08 18:00N 38°43' W 009°07'0 0.0
2017-Nov-08 17:30N 38°43' W 009°07'0 0.0
2017-Nov-08 16:54N 38°43' W 009°07'0 0.0
2017-Nov-08 16:30N 38°43' W 009°07'0 0.0
2017-Nov-08 15:54N 38°43' W 009°07'0 0.0
2017-Nov-08 15:27N 38°43' W 009°07'0 0.0
2017-Nov-08 15:00N 38°43' W 009°07'0 0.0
2017-Nov-08 14:27N 38°43' W 009°07'0 0.0
2017-Nov-08 14:00N 38°43' W 009°07'0 0.0
2017-Nov-08 13:30N 38°43' W 009°07'0 0.0
2017-Nov-08 13:00N 38°43' W 009°07'0 0.0
2017-Nov-08 12:30N 38°43' W 009°07'0 0.0
2017-Nov-08 12:00N 38°43' W 009°07'0 0.0
2017-Nov-08 11:21N 38°43' W 009°07'0 0.0
2017-Nov-08 11:00N 38°43' W 009°07'0 0.0
2017-Nov-08 10:27N 38°43' W 009°07'0 0.0
2017-Nov-08 10:00N 38°43' W 009°07'0 0.0
2017-Nov-08 09:24N 38°43' W 009°07'0 0.0
2017-Nov-08 08:57N 38°43' W 009°07'0 0.0
2017-Nov-08 08:30N 38°43' W 009°07'0 0.0
2017-Nov-08 08:00N 38°43' W 009°07'0 0.0
2017-Nov-08 07:30N 38°43' W 009°07'0 0.0
2017-Nov-08 07:00N 38°43' W 009°07'0 0.0
2017-Nov-08 06:27N 38°43' W 009°07'0 0.0
2017-Nov-08 06:00N 38°43' W 009°07'0 0.0
2017-Nov-08 05:30N 38°43' W 009°07'0 0.0
2017-Nov-08 05:00N 38°43' W 009°07'0 0.0
2017-Nov-08 04:30N 38°43' W 009°07'0 0.0
2017-Nov-08 04:00N 38°43' W 009°07'0 0.0
2017-Nov-08 03:30N 38°43' W 009°07'0 0.0
2017-Nov-08 03:00N 38°43' W 009°07'0 0.0
2017-Nov-08 02:27N 38°43' W 009°07'0 0.0
2017-Nov-08 02:00N 38°43' W 009°07'0 0.0
2017-Nov-08 01:30N 38°43' W 009°07'0 0.0
2017-Nov-08 00:54N 38°43' W 009°07'0 0.0
2017-Nov-08 00:27N 38°43' W 009°07'0 0.0
2017-Nov-08 00:00N 38°43' W 009°07'0 0.0
2017-Nov-07 23:30N 38°43' W 009°07'0 0.0
2017-Nov-07 23:00N 38°43' W 009°07'0 0.0
2017-Nov-07 22:30N 38°43' W 009°07'0 0.0
2017-Nov-07 22:00N 38°43' W 009°07'0 0.0
2017-Nov-07 21:30N 38°43' W 009°07'0 0.0
2017-Nov-07 20:57N 38°43' W 009°07'0 0.0
2017-Nov-07 20:30N 38°43' W 009°07'0 0.0
2017-Nov-07 20:00N 38°43' W 009°07'0 0.0
2017-Nov-07 19:30N 38°43' W 009°07'0 0.0
2017-Nov-07 19:00N 38°43' W 009°07'0 0.0
2017-Nov-07 18:30N 38°43' W 009°07'0 0.0
2017-Nov-07 18:00N 38°43' W 009°07'0 0.0
2017-Nov-07 17:27N 38°43' W 009°07'0 0.0
2017-Nov-07 17:00N 38°43' W 009°07'0 0.0
2017-Nov-07 16:30N 38°43' W 009°07'0 0.0
2017-Nov-07 16:00N 38°43' W 009°07'0 0.0
2017-Nov-07 15:30N 38°43' W 009°07'0 0.0
2017-Nov-07 15:00N 38°43' W 009°07'0 0.0
2017-Nov-07 14:30N 38°43' W 009°07'0 0.0
2017-Nov-07 14:00N 38°43' W 009°07'0 0.0
2017-Nov-07 13:30N 38°43' W 009°07'0 0.0
2017-Nov-07 13:00N 38°43' W 009°07'0 0.0
2017-Nov-07 12:30N 38°43' W 009°07'0 0.0
2017-Nov-07 12:00N 38°43' W 009°07'0 0.0
2017-Nov-07 11:24N 38°43' W 009°07'0 0.0
2017-Nov-07 11:00N 38°43' W 009°07'0 0.0
2017-Nov-07 10:30N 38°43' W 009°07'0 0.0
2017-Nov-07 10:00N 38°43' W 009°07'0 0.0
2017-Nov-07 09:30N 38°43' W 009°07'0 0.0
2017-Nov-07 09:00N 38°43' W 009°07'0 0.0
2017-Nov-07 08:30N 38°43' W 009°07'0 0.0
2017-Nov-07 08:00N 38°43' W 009°07'0 0.0
2017-Nov-07 07:30N 38°43' W 009°07'0 0.0
2017-Nov-07 07:00N 38°43' W 009°07'0 0.0
2017-Nov-07 06:30N 38°43' W 009°07'0 0.0
2017-Nov-07 06:00N 38°43' W 009°07'0 0.0
2017-Nov-07 05:30N 38°43' W 009°07'0 0.0
2017-Nov-07 05:00N 38°43' W 009°07'0 0.0
2017-Nov-07 04:30N 38°43' W 009°07'0 0.0
2017-Nov-07 04:00N 38°43' W 009°07'0 0.0
2017-Nov-07 03:30N 38°43' W 009°07'0 0.0
2017-Nov-07 03:00N 38°43' W 009°07'0 0.0
2017-Nov-07 02:30N 38°43' W 009°07'0 0.0
2017-Nov-07 02:00N 38°43' W 009°07'0 0.0
2017-Nov-07 01:30N 38°43' W 009°07'0 0.0
2017-Nov-07 01:00N 38°43' W 009°07'0 0.0
2017-Nov-07 00:30N 38°43' W 009°07'0 0.0
2017-Nov-07 00:00N 38°43' W 009°07'0 0.0
2017-Nov-06 23:30N 38°43' W 009°07'0 0.0
2017-Nov-06 23:00N 38°43' W 009°07'0 0.0
2017-Nov-06 22:30N 38°43' W 009°07'0 0.0
2017-Nov-06 22:00N 38°43' W 009°07'0 0.0
2017-Nov-06 21:27N 38°43' W 009°07'0 0.0
2017-Nov-06 21:00N 38°43' W 009°07'0 0.0
2017-Nov-06 20:30N 38°43' W 009°07'33 1.8
2017-Nov-06 02:31N 38°11' W 009°17'714.9
2017-Nov-06 02:01N 38°04' W 009°15'611.3
2017-Nov-06 01:30N 37°59' W 009°13'1 1.4
2017-Nov-06 01:00N 37°59' W 009°13'1 2.0
2017-Nov-06 00:30N 37°60' W 009°12'1 2.0
2017-Nov-06 00:00N 38°01' W 009°12'1 2.0
2017-Nov-05 23:30N 38°02' W 009°12'1 2.1
2017-Nov-05 23:00N 38°03' W 009°12'1 2.0
2017-Nov-05 22:30N 38°04' W 009°12'1 2.0
2017-Nov-05 21:57N 38°05' W 009°13'1 1.9
2017-Nov-05 21:30N 38°06' W 009°13'1 1.8
2017-Nov-05 21:00N 38°07' W 009°13'1 1.4
2017-Nov-05 20:30N 38°07' W 009°13'4 8.1
2017-Nov-05 20:00N 38°04' W 009°15'714.0
2017-Nov-05 19:31N 37°57' W 009°17'713.7
2017-Nov-05 19:00N 37°51' W 009°20'713.8
2017-Nov-05 18:30N 37°44' W 009°23'713.6
2017-Nov-05 18:00N 37°37' W 009°23'713.6
2017-Nov-05 17:30N 37°30' W 009°23'  

Dump ship's entire track history